Time;durP1;ratioP1;P1;durP2;ratioP2;P2;SDS_P1;SDS_P2;PMS_P1;PMS_P2;Temp;Humidity;BMP_temperature;BMP_pressure;BME280_temperature;BME280_humidity;BME280_pressure;Samples;Min_cycle;Max_cycle;Signal;HPM_P1;HPM_P2
2020/12/06 00:01:19;;;;;;;12.00;8.38;;;5.00;29.10;;;;;;5096630;28;20166;-68
2020/12/06 00:03:45;;;;;;;13.60;10.38;;;5.00;27.90;;;;;;5096910;28;20228;-68
2020/12/06 00:06:11;;;;;;;15.17;10.77;;;5.20;18.30;;;;;;5096720;28;20176;-68
2020/12/06 00:08:38;;;;;;;15.03;10.20;;;5.20;1.00;;;;;;5096487;28;20682;-68
2020/12/06 00:11:05;;;;;;;14.02;9.95;;;4.90;10.90;;;;;;5096714;28;20171;-68
2020/12/06 00:13:30;;;;;;;12.93;9.13;;;4.90;19.60;;;;;;5096449;28;20182;-68
2020/12/06 00:15:56;;;;;;;13.03;9.40;;;4.80;57.00;;;;;;5096464;28;20191;-68
2020/12/06 00:18:22;;;;;;;10.73;8.17;;;4.80;28.00;;;;;;5096157;28;20187;-68
2020/12/06 00:20:47;;;;;;;12.23;8.17;;;4.70;69.20;;;;;;5096290;28;20242;-68
2020/12/06 00:23:20;;;;;;;11.00;8.90;;;4.80;79.30;;;;;;5096165;28;20199;-68
2020/12/06 00:25:47;;;;;;;15.00;10.10;;;4.80;32.30;;;;;;5096420;28;20156;-68
2020/12/06 00:28:12;;;;;;;12.13;9.00;;;4.80;50.30;;;;;;5096015;28;20187;-69
2020/12/06 00:30:38;;;;;;;12.90;8.67;;;4.80;39.60;;;;;;5096542;28;20167;-68
2020/12/06 00:33:04;;;;;;;11.20;9.17;;;4.60;56.70;;;;;;5095962;28;20175;-68
2020/12/06 00:35:29;;;;;;;12.23;8.60;;;4.60;99.90;;;;;;5095786;28;20198;-68
2020/12/06 00:37:55;;;;;;;15.00;9.10;;;4.60;99.90;;;;;;5096120;28;20180;-68
2020/12/06 00:40:20;;;;;;;10.40;8.90;;;4.50;99.90;;;;;;5096654;28;20179;-68
2020/12/06 00:42:46;;;;;;;18.23;8.90;;;4.50;99.90;;;;;;5096102;28;20168;-68
2020/12/06 00:45:11;;;;;;;11.83;9.10;;;4.80;61.60;;;;;;5095741;28;20168;-68
2020/12/06 00:47:37;;;;;;;11.97;8.37;;;4.70;60.70;;;;;;5095583;28;20253;-68
2020/12/06 00:50:05;;;;;;;13.07;7.88;;;4.70;79.20;;;;;;5095619;28;20221;-68
2020/12/06 00:52:30;;;;;;;12.52;9.18;;;4.60;91.10;;;;;;5095835;28;20171;-68
2020/12/06 00:54:56;;;;;;;9.60;6.53;;;4.70;71.10;;;;;;5095132;28;20785;-69
2020/12/06 00:57:21;;;;;;;12.23;8.33;;;4.70;79.90;;;;;;5095513;28;20180;-67
2020/12/06 00:59:47;;;;;;;12.63;8.20;;;4.70;90.90;;;;;;5095613;28;20171;-69
2020/12/06 01:02:12;;;;;;;10.90;7.83;;;4.80;87.40;;;;;;5095454;28;20576;-69
2020/12/06 01:04:38;;;;;;;10.03;8.47;;;4.90;20.20;;;;;;5095319;28;20635;-69
2020/12/06 01:07:03;;;;;;;9.60;7.47;;;4.70;72.20;;;;;;5093911;28;20248;-69
2020/12/06 01:09:29;;;;;;;10.73;8.03;;;4.90;48.00;;;;;;5095828;28;20172;-69
2020/12/06 01:11:55;;;;;;;14.13;8.90;;;4.80;20.20;;;;;;5095487;28;20589;-69
2020/12/06 01:14:20;;;;;;;10.53;8.00;;;4.40;99.90;;;;;;5095172;28;20614;-67
2020/12/06 01:16:50;;;;;;;9.93;7.97;;;4.30;99.90;;;;;;5095242;28;20713;-68
2020/12/06 01:19:19;;;;;;;14.63;8.18;;;4.30;99.90;;;;;;5094988;28;20166;-66
2020/12/06 01:21:52;;;;;;;10.90;8.55;;;4.40;99.90;;;;;;5094985;28;20190;-67
2020/12/06 01:24:18;;;;;;;11.77;8.70;;;4.30;99.90;;;;;;5094952;28;20177;-67
2020/12/06 01:26:53;;;;;;;11.23;7.47;;;4.40;99.90;;;;;;5094995;28;20219;-67
2020/12/06 01:29:18;;;;;;;10.50;7.93;;;4.40;99.90;;;;;;5095030;28;20215;-67
2020/12/06 01:31:46;;;;;;;9.90;7.33;;;4.40;99.90;;;;;;5094895;28;20266;-67
2020/12/06 01:34:11;;;;;;;8.93;6.82;;;4.40;99.90;;;;;;5094664;28;20536;-67
2020/12/06 01:36:37;;;;;;;10.00;7.93;;;4.30;99.90;;;;;;5094880;28;20198;-67
2020/12/06 01:39:03;;;;;;;9.53;7.33;;;4.30;99.90;;;;;;5094765;28;20172;-67
2020/12/06 01:41:28;;;;;;;9.43;6.97;;;4.50;99.90;;;;;;5094594;28;20159;-67
2020/12/06 01:44:02;;;;;;;11.63;7.90;;;4.60;99.90;;;;;;5094954;28;20164;-67
2020/12/06 01:46:27;;;;;;;14.77;8.38;;;4.60;99.90;;;;;;5094445;28;20202;-67
2020/12/06 01:48:54;;;;;;;9.93;8.13;;;4.50;99.90;;;;;;5094848;28;20172;-67
2020/12/06 01:51:20;;;;;;;10.55;8.23;;;4.60;99.90;;;;;;5094416;28;20172;-67
2020/12/06 01:53:50;;;;;;;14.32;9.30;;;4.50;99.90;;;;;;5094717;28;20650;-67
2020/12/06 01:56:19;;;;;;;10.15;7.50;;;4.40;99.90;;;;;;5094293;28;20195;-67
2020/12/06 01:58:45;;;;;;;10.05;8.05;;;4.20;99.90;;;;;;5094572;28;20187;-67
2020/12/06 02:01:12;;;;;;;8.80;6.80;;;4.40;99.90;;;;;;5094824;28;20168;-67
2020/12/06 02:03:38;;;;;;;11.25;7.40;;;4.50;99.90;;;;;;5094478;28;20164;-67
2020/12/06 02:06:04;;;;;;;14.97;8.50;;;4.80;99.90;;;;;;5093622;28;20180;-67
2020/12/06 02:08:30;;;;;;;14.32;10.60;;;5.00;77.70;;;;;;5094096;28;20403;-67
2020/12/06 02:10:56;;;;;;;11.93;9.30;;;5.20;11.30;;;;;;5094139;28;20167;-67
2020/12/06 02:13:21;;;;;;;12.80;10.00;;;5.00;17.60;;;;;;5094286;28;20175;-67
2020/12/06 02:15:47;;;;;;;14.80;10.10;;;4.90;38.30;;;;;;5093938;28;20313;-67
2020/12/06 02:18:14;;;;;;;13.40;9.13;;;4.80;84.90;;;;;;5093784;28;20675;-68
2020/12/06 02:20:40;;;;;;;9.90;7.43;;;4.70;99.90;;;;;;5094131;28;20872;-67
2020/12/06 02:23:05;;;;;;;12.40;8.18;;;4.60;99.90;;;;;;5093840;28;20533;-67
2020/12/06 02:25:35;;;;;;;11.83;7.87;;;4.80;99.90;;;;;;5093716;28;20174;-67
2020/12/06 02:28:03;;;;;;;11.90;7.63;;;4.70;79.60;;;;;;5093613;28;20244;-67
2020/12/06 02:30:28;;;;;;;11.45;7.50;;;4.70;99.90;;;;;;5093984;28;20535;-68
2020/12/06 02:32:54;;;;;;;10.27;7.30;;;4.80;99.90;;;;;;5093968;28;20259;-67
2020/12/06 02:35:20;;;;;;;10.60;7.73;;;5.00;97.80;;;;;;5093831;28;20206;-67
2020/12/06 02:37:46;;;;;;;11.77;7.13;;;5.00;51.80;;;;;;5093839;28;20430;-67
2020/12/06 02:40:11;;;;;;;10.03;8.20;;;5.00;70.80;;;;;;5093837;28;20175;-67
2020/12/06 02:42:37;;;;;;;12.77;8.30;;;4.90;76.30;;;;;;5093557;28;20440;-67
2020/12/06 02:45:03;;;;;;;9.90;6.37;;;4.80;99.90;;;;;;5093713;28;20178;-67
2020/12/06 02:47:29;;;;;;;10.32;7.15;;;4.70;99.90;;;;;;5093469;28;20191;-67
2020/12/06 02:49:54;;;;;;;10.00;7.53;;;4.40;99.90;;;;;;5093424;28;20216;-67
2020/12/06 02:52:20;;;;;;;11.67;7.57;;;4.40;99.90;;;;;;5093407;28;20255;-67
2020/12/06 02:54:45;;;;;;;9.00;7.67;;;4.40;99.90;;;;;;5093322;28;20195;-67
2020/12/06 02:57:11;;;;;;;9.70;7.00;;;4.60;99.90;;;;;;5093542;28;20195;-67
2020/12/06 02:59:36;;;;;;;8.30;6.90;;;4.90;99.90;;;;;;5093543;28;20203;-67
2020/12/06 03:02:02;;;;;;;8.87;6.70;;;4.90;99.90;;;;;;5093318;28;20252;-68
2020/12/06 03:04:28;;;;;;;9.33;7.30;;;4.90;99.90;;;;;;5093451;28;20207;-67
2020/12/06 03:06:53;;;;;;;12.23;8.20;;;4.90;99.90;;;;;;5093168;28;20448;-67
2020/12/06 03:09:19;;;;;;;8.47;7.47;;;4.80;99.90;;;;;;5093269;28;20167;-67
2020/12/06 03:11:44;;;;;;;10.43;7.60;;;4.80;99.90;;;;;;5093203;28;20254;-67
2020/12/06 03:14:10;;;;;;;10.43;7.63;;;4.80;99.90;;;;;;5093286;28;20630;-67
2020/12/06 03:16:35;;;;;;;10.30;8.00;;;4.70;99.90;;;;;;5094603;28;20686;-67
2020/12/06 03:19:01;;;;;;;12.07;7.13;;;4.60;99.90;;;;;;5099896;28;20707;-67
2020/12/06 03:21:26;;;;;;;9.27;7.13;;;4.80;99.90;;;;;;5099823;28;20258;-67
2020/12/06 03:23:52;;;;;;;14.53;7.50;;;5.00;99.90;;;;;;5100034;28;20250;-67
2020/12/06 03:26:17;;;;;;;11.03;7.23;;;5.00;99.90;;;;;;5100057;28;20635;-67
2020/12/06 03:28:43;;;;;;;11.03;6.90;;;5.00;99.90;;;;;;5099997;28;20211;-67
2020/12/06 03:31:08;;;;;;;11.17;7.53;;;5.10;99.90;;;;;;5100022;28;20178;-67
2020/12/06 03:33:34;;;;;;;9.87;6.43;;;4.90;99.90;;;;;;5099853;28;20250;-67
2020/12/06 03:36:00;;;;;;;10.73;7.07;;;4.70;99.90;;;;;;5099627;28;20265;-67
2020/12/06 03:38:25;;;;;;;9.90;6.80;;;4.90;99.90;;;;;;5099602;28;20194;-67
2020/12/06 03:40:51;;;;;;;10.53;7.93;;;4.70;99.90;;;;;;5099913;28;20657;-67
2020/12/06 03:43:16;;;;;;;11.53;7.20;;;4.90;99.90;;;;;;5099730;28;20182;-67
2020/12/06 03:45:42;;;;;;;10.27;7.77;;;4.90;99.90;;;;;;5099644;28;20225;-67
2020/12/06 03:48:07;;;;;;;9.30;7.60;;;4.70;99.90;;;;;;5099884;28;20223;-67
2020/12/06 03:50:33;;;;;;;9.40;6.67;;;5.00;99.90;;;;;;5100323;28;20187;-67
2020/12/06 03:52:58;;;;;;;10.20;6.43;;;5.10;99.90;;;;;;5099939;28;20167;-67
2020/12/06 03:55:24;;;;;;;9.33;6.77;;;5.20;99.90;;;;;;5100058;28;20612;-67
2020/12/06 03:57:49;;;;;;;8.20;6.00;;;5.10;99.90;;;;;;5099780;28;20183;-67
2020/12/06 04:00:20;;;;;;;8.27;6.27;;;4.90;99.90;;;;;;5100298;28;20163;-66
2020/12/06 04:02:52;;;;;;;7.63;6.85;;;5.10;99.90;;;;;;5099784;28;20152;-66
2020/12/06 04:05:22;;;;;;;11.50;7.13;;;5.10;99.90;;;;;;5099786;28;20163;-67
2020/12/06 04:07:49;;;;;;;10.75;7.47;;;5.10;99.90;;;;;;5099266;28;20211;-67
2020/12/06 04:10:14;;;;;;;10.13;7.03;;;5.10;99.90;;;;;;5099437;28;20167;-66
2020/12/06 04:12:40;;;;;;;8.97;6.60;;;5.10;99.90;;;;;;5099704;28;20175;-67
2020/12/06 04:15:05;;;;;;;10.97;6.80;;;4.70;99.90;;;;;;5099272;28;20686;-67
2020/12/06 04:17:31;;;;;;;8.30;6.13;;;5.00;99.90;;;;;;5099405;28;20194;-66
2020/12/06 04:19:57;;;;;;;10.00;6.83;;;5.00;99.90;;;;;;5099381;28;20166;-67
2020/12/06 04:22:22;;;;;;;7.80;6.50;;;4.90;99.90;;;;;;5099687;28;20164;-67
2020/12/06 04:24:48;;;;;;;12.43;8.03;;;5.00;99.90;;;;;;5099341;28;20167;-66
2020/12/06 04:27:13;;;;;;;9.40;8.00;;;4.80;99.90;;;;;;5099189;28;20659;-67
2020/12/06 04:29:39;;;;;;;8.80;6.50;;;4.80;99.90;;;;;;5096086;28;20167;-69
2020/12/06 04:32:04;;;;;;;8.13;5.60;;;5.00;99.90;;;;;;5096033;28;20220;-69
2020/12/06 04:34:30;;;;;;;7.70;6.50;;;4.90;99.90;;;;;;5096189;28;20195;-67
2020/12/06 04:36:55;;;;;;;8.10;6.00;;;4.80;99.90;;;;;;5096159;28;20718;-67
2020/12/06 04:39:21;;;;;;;9.53;6.20;;;4.60;99.90;;;;;;5095894;28;20164;-67
2020/12/06 04:41:47;;;;;;;8.50;5.80;;;4.90;99.90;;;;;;5095832;28;20180;-67
2020/12/06 04:44:12;;;;;;;7.83;6.07;;;4.90;99.90;;;;;;5096056;28;20171;-67
2020/12/06 04:46:39;;;;;;;8.27;6.50;;;5.00;99.90;;;;;;5095953;28;20187;-67
2020/12/06 04:49:05;;;;;;;8.02;6.40;;;5.10;99.90;;;;;;5096001;28;20592;-66
2020/12/06 04:51:38;;;;;;;10.37;7.10;;;4.80;99.90;;;;;;5095656;28;20195;-67
2020/12/06 04:54:05;;;;;;;6.63;5.93;;;4.80;99.90;;;;;;5095845;28;20233;-67
2020/12/06 04:56:31;;;;;;;7.35;5.85;;;4.70;99.90;;;;;;5095482;28;20215;-67
2020/12/06 04:58:59;;;;;;;8.80;5.90;;;4.60;99.90;;;;;;5096196;28;20176;-66
2020/12/06 05:01:33;;;;;;;7.88;6.65;;;4.50;99.90;;;;;;5095732;28;20217;-66
2020/12/06 05:04:16;;;;;;;8.57;6.93;;;4.50;1.00;;;;;;5095715;28;20155;-66
2020/12/06 05:06:43;;;;;;;8.65;6.47;;;4.80;1.00;;;;;;5097097;28;20270;-67
2020/12/06 05:09:13;;;;;;;9.50;6.30;;;4.90;99.90;;;;;;5095791;28;20155;-67
2020/12/06 05:11:40;;;;;;;13.55;6.93;;;5.00;99.90;;;;;;5095456;28;20159;-67
2020/12/06 05:14:06;;;;;;;9.98;7.20;;;4.80;99.90;;;;;;5095101;28;20647;-67
2020/12/06 05:16:36;;;;;;;9.57;6.82;;;4.80;1.00;;;;;;5095360;28;20252;-67
2020/12/06 05:19:04;;;;;;;11.10;6.63;;;5.00;99.90;;;;;;5095080;28;20182;-67
2020/12/06 05:21:37;;;;;;;10.05;6.80;;;5.10;99.90;;;;;;5095315;28;20164;-67
2020/12/06 05:24:04;;;;;;;10.30;7.03;;;5.10;99.90;;;;;;5095277;28;20171;-67
2020/12/06 05:26:30;;;;;;;9.52;6.90;;;5.20;99.90;;;;;;5095120;28;20260;-67
2020/12/06 05:28:56;;;;;;;9.45;6.45;;;5.30;99.90;;;;;;5095233;28;20167;-67
2020/12/06 05:31:22;;;;;;;9.00;6.25;;;5.30;99.90;;;;;;5095107;28;20182;-67
2020/12/06 05:33:49;;;;;;;8.57;7.07;;;5.00;99.90;;;;;;5094809;28;20623;-66
2020/12/06 05:36:15;;;;;;;7.63;6.82;;;4.60;99.90;;;;;;5094737;28;20195;-66
2020/12/06 05:38:41;;;;;;;10.63;6.85;;;4.70;1.00;;;;;;5095129;28;20538;-67
2020/12/06 05:41:07;;;;;;;9.30;6.07;;;4.70;1.00;;;;;;5094644;28;20168;-66
2020/12/06 05:43:37;;;;;;;8.93;6.20;;;5.00;99.90;;;;;;5094664;28;20225;-67
2020/12/06 05:46:16;;;;;;;8.30;5.93;;;5.20;99.90;;;;;;5094899;28;20263;-67
2020/12/06 05:48:44;;;;;;;9.75;5.88;;;5.20;99.90;;;;;;5094853;28;20695;-67
2020/12/06 05:51:10;;;;;;;7.88;6.35;;;5.10;99.90;;;;;;5094462;28;20640;-67
2020/12/06 05:53:36;;;;;;;8.80;6.53;;;5.10;99.90;;;;;;5094501;28;20247;-67
2020/12/06 05:56:15;;;;;;;9.90;6.85;;;5.00;99.90;;;;;;5094335;28;20195;-67
2020/12/06 05:58:42;;;;;;;9.15;6.40;;;5.00;99.90;;;;;;5095471;28;20193;-67
2020/12/06 06:01:12;;;;;;;7.18;5.55;;;5.10;99.90;;;;;;5097881;28;20176;-68
2020/12/06 06:03:42;;;;;;;8.02;6.20;;;5.00;1.00;;;;;;5096147;28;20176;-67
2020/12/06 06:06:12;;;;;;;8.68;5.90;;;5.20;99.90;;;;;;5094048;28;20179;-68
2020/12/06 06:08:41;;;;;;;7.55;6.63;;;5.00;99.90;;;;;;5094718;28;20212;-67
2020/12/06 06:11:21;;;;;;;11.27;7.50;;;5.00;1.00;;;;;;5094108;28;20258;-66
2020/12/06 06:14:04;;;;;;;9.13;6.50;;;5.00;99.90;;;;;;5094365;28;20186;-67
2020/12/06 06:16:32;;;;;;;10.40;6.60;;;5.20;99.90;;;;;;5094350;28;20251;-66
2020/12/06 06:19:00;;;;;;;7.35;5.60;;;5.30;99.90;;;;;;5093982;28;20171;-67
2020/12/06 06:21:36;;;;;;;10.40;6.70;;;5.30;99.90;;;;;;5095007;28;20179;-66
2020/12/06 06:24:08;;;;;;;8.85;6.00;;;5.60;99.90;;;;;;5093959;28;20158;-66
2020/12/06 06:26:40;;;;;;;9.50;7.05;;;5.80;99.90;;;;;;5094018;28;20206;-66
2020/12/06 06:29:13;;;;;;;7.80;6.20;;;5.70;99.90;;;;;;5094085;28;20164;-66
2020/12/06 06:31:40;;;;;;;8.05;6.80;;;5.70;99.90;;;;;;5093814;28;20203;-67
2020/12/06 06:34:07;;;;;;;7.47;5.75;;;5.50;99.90;;;;;;5093703;28;20183;-67
2020/12/06 06:36:34;;;;;;;7.80;6.70;;;5.60;99.90;;;;;;5093623;28;20206;-66
2020/12/06 06:39:02;;;;;;;6.85;6.05;;;5.60;99.90;;;;;;5093863;28;20164;-67
2020/12/06 06:41:28;;;;;;;11.07;6.85;;;5.50;99.90;;;;;;5093497;28;20258;-67
2020/12/06 06:44:00;;;;;;;10.90;7.10;;;5.20;99.90;;;;;;5093585;28;20206;-66
2020/12/06 06:46:34;;;;;;;8.32;6.55;;;5.30;99.90;;;;;;5093561;28;20238;-67
2020/12/06 06:49:12;;;;;;;8.23;6.45;;;5.40;99.90;;;;;;5093757;28;20164;-65
2020/12/06 06:51:38;;;;;;;8.95;7.00;;;5.40;99.90;;;;;;5092930;28;20159;-67
2020/12/06 06:54:08;;;;;;;10.15;7.53;;;5.50;99.90;;;;;;5093370;28;20176;-67
2020/12/06 06:56:51;;;;;;;10.75;7.00;;;5.60;99.90;;;;;;5093268;28;20668;-67
2020/12/06 06:59:51;;;;;;;11.10;7.25;;;5.50;99.90;;;;;;5093573;28;20182;-67
2020/12/06 07:02:23;;;;;;;9.27;6.20;;;5.40;99.90;;;;;;5093476;28;20206;-67
2020/12/06 07:04:49;;;;;;;8.45;7.00;;;5.10;99.90;;;;;;5093166;28;20532;-67
2020/12/06 07:07:16;;;;;;;9.90;6.13;;;5.20;99.90;;;;;;5093160;28;20210;-67
2020/12/06 07:09:42;;;;;;;9.73;7.28;;;5.20;99.90;;;;;;5093526;28;20663;-67
2020/12/06 07:12:09;;;;;;;10.00;6.47;;;5.10;99.90;;;;;;5093128;28;20175;-67
2020/12/06 07:14:34;;;;;;;8.23;6.05;;;5.00;99.90;;;;;;5092995;28;20932;-67
2020/12/06 07:17:00;;;;;;;11.90;6.50;;;5.20;99.90;;;;;;5093046;28;20188;-67
2020/12/06 07:19:26;;;;;;;10.57;6.60;;;5.10;99.90;;;;;;5093643;28;20236;-67
2020/12/06 07:21:51;;;;;;;7.70;5.63;;;4.90;99.90;;;;;;5093302;28;20250;-67
2020/12/06 07:24:18;;;;;;;8.03;6.37;;;5.00;1.00;;;;;;5093291;28;20510;-67
2020/12/06 07:26:47;;;;;;;9.57;6.75;;;5.00;1.00;;;;;;5093241;28;20999;-67
2020/12/06 07:29:13;;;;;;;9.73;6.20;;;5.10;1.00;;;;;;5093201;28;20175;-67
2020/12/06 07:31:38;;;;;;;7.50;6.10;;;5.10;99.90;;;;;;5092964;28;20167;-67
2020/12/06 07:34:05;;;;;;;7.07;5.87;;;5.20;99.90;;;;;;5092935;28;20747;-67
2020/12/06 07:36:35;;;;;;;7.85;6.38;;;5.30;99.90;;;;;;5092751;28;20573;-67
2020/12/06 07:39:15;;;;;;;16.58;13.57;;;5.20;99.90;;;;;;5093251;28;20172;-67
2020/12/06 07:41:48;;;;;;;7.30;6.47;;;4.90;99.90;;;;;;5093172;28;20217;-68
2020/12/06 07:44:14;;;;;;;7.50;6.07;;;5.00;1.00;;;;;;5093167;28;20666;-67
2020/12/06 07:46:40;;;;;;;6.25;4.68;;;4.90;1.00;;;;;;5092737;28;20191;-68
2020/12/06 07:49:06;;;;;;;8.38;5.60;;;5.00;1.00;;;;;;5093085;28;20179;-67
2020/12/06 07:51:32;;;;;;;6.53;5.07;;;5.10;1.00;;;;;;5093321;28;20167;-67
2020/12/06 07:54:01;;;;;;;10.20;6.00;;;5.00;1.00;;;;;;5092063;28;20810;-67
2020/12/06 07:56:29;;;;;;;7.95;6.00;;;5.10;1.00;;;;;;5092511;28;20191;-67
2020/12/06 07:59:21;;;;;;;7.75;5.55;;;4.90;1.00;;;;;;5092962;28;20172;-67
2020/12/06 08:01:48;;;;;;;7.05;5.50;;;5.20;1.00;;;;;;5093655;28;20217;-67
2020/12/06 08:04:23;;;;;;;7.57;5.47;;;5.30;99.90;;;;;;5094960;28;20187;-67
2020/12/06 08:06:53;;;;;;;8.55;6.43;;;5.40;99.90;;;;;;5096582;28;20207;-67
2020/12/06 08:09:23;;;;;;;7.72;5.28;;;5.50;99.90;;;;;;5097000;28;20550;-67
2020/12/06 08:11:51;;;;;;;8.73;6.50;;;5.70;99.90;;;;;;5096395;28;20213;-68
2020/12/06 08:14:20;;;;;;;6.10;5.32;;;5.60;99.90;;;;;;5096243;28;20263;-67
2020/12/06 08:17:02;;;;;;;6.00;5.35;;;5.50;99.90;;;;;;5096246;28;20187;-67
2020/12/06 08:19:28;;;;;;;9.30;5.57;;;5.60;99.90;;;;;;5096329;28;20276;-68
2020/12/06 08:22:02;;;;;;;8.95;6.55;;;5.60;99.90;;;;;;5096469;28;20624;-67
2020/12/06 08:24:30;;;;;;;8.63;5.90;;;5.90;99.90;;;;;;5096523;28;20201;-67
2020/12/06 08:26:56;;;;;;;8.23;6.20;;;6.00;56.20;;;;;;5096239;28;20187;-68
2020/12/06 08:29:43;;;;;;;8.52;5.88;;;6.10;34.80;;;;;;5096137;28;20155;-67
2020/12/06 08:32:10;;;;;;;7.97;6.72;;;6.10;26.00;;;;;;5096333;28;20234;-68
2020/12/06 08:34:36;;;;;;;11.05;6.53;;;6.10;19.60;;;;;;5096129;28;20191;-68
2020/12/06 08:37:16;;;;;;;8.60;6.40;;;6.10;22.00;;;;;;5096002;28;20194;-69
2020/12/06 08:39:42;;;;;;;15.00;7.43;;;6.10;51.80;;;;;;5096143;28;20808;-69
2020/12/06 08:42:20;;;;;;;8.07;6.80;;;6.20;16.70;;;;;;5095846;28;20163;-69
2020/12/06 08:44:51;;;;;;;9.48;6.47;;;6.00;31.30;;;;;;5096125;28;20401;-68
2020/12/06 08:47:17;;;;;;;9.32;6.13;;;5.90;35.50;;;;;;5095974;28;20187;-69
2020/12/06 08:49:42;;;;;;;8.33;6.20;;;6.00;26.30;;;;;;5095846;28;20179;-68
2020/12/06 08:52:20;;;;;;;7.77;6.30;;;6.00;51.10;;;;;;5095909;28;20250;-68
2020/12/06 08:54:47;;;;;;;7.97;6.45;;;5.80;51.00;;;;;;5095722;28;20208;-67
2020/12/06 08:57:14;;;;;;;10.00;7.10;;;5.80;99.90;;;;;;5095694;28;20604;-68
2020/12/06 08:59:41;;;;;;;9.75;7.28;;;5.80;95.10;;;;;;5095769;28;20176;-68
2020/12/06 09:02:07;;;;;;;10.27;7.80;;;5.80;92.10;;;;;;5095293;28;20175;-67
2020/12/06 09:04:34;;;;;;;8.18;6.13;;;6.10;72.10;;;;;;5095842;28;20212;-67
2020/12/06 09:07:02;;;;;;;7.97;5.82;;;6.20;8.00;;;;;;5095245;28;20203;-67
2020/12/06 09:09:28;;;;;;;6.95;5.85;;;6.50;1.00;;;;;;5095427;28;20187;-67
2020/12/06 09:11:55;;;;;;;7.10;6.17;;;6.60;1.00;;;;;;5095342;28;20645;-67
2020/12/06 09:14:21;;;;;;;8.15;6.60;;;6.60;1.00;;;;;;5094629;28;20172;-67
2020/12/06 09:16:46;;;;;;;6.10;5.50;;;6.60;1.00;;;;;;5095044;28;20202;-67
2020/12/06 09:19:12;;;;;;;5.93;5.33;;;6.50;1.00;;;;;;5095397;28;20405;-67
2020/12/06 09:21:37;;;;;;;10.93;6.77;;;6.50;1.00;;;;;;5095211;28;20171;-67
2020/12/06 09:24:03;;;;;;;11.40;8.30;;;6.50;1.00;;;;;;5095293;28;20171;-67
2020/12/06 09:26:29;;;;;;;8.35;6.50;;;6.40;1.00;;;;;;5094998;28;20203;-67
2020/12/06 09:28:55;;;;;;;7.67;6.77;;;6.20;1.00;;;;;;5094965;28;20171;-67
2020/12/06 09:31:21;;;;;;;12.20;6.80;;;6.00;1.00;;;;;;5095228;28;20167;-67
2020/12/06 09:33:47;;;;;;;12.15;7.25;;;6.30;1.00;;;;;;5095388;28;20527;-67
2020/12/06 09:36:12;;;;;;;10.30;6.60;;;6.50;1.00;;;;;;5094852;28;20199;-67
2020/12/06 09:38:38;;;;;;;10.03;8.00;;;6.40;1.00;;;;;;5095027;28;20246;-67
2020/12/06 09:41:05;;;;;;;10.60;8.10;;;6.10;1.00;;;;;;5095451;28;20632;-67
2020/12/06 09:43:30;;;;;;;10.82;7.95;;;6.40;1.00;;;;;;5095122;28;20167;-68
2020/12/06 09:45:56;;;;;;;7.33;6.20;;;6.10;1.00;;;;;;5095053;28;20176;-68
2020/12/06 09:48:22;;;;;;;14.37;8.23;;;6.40;1.00;;;;;;5094469;28;20263;-68
2020/12/06 09:50:47;;;;;;;12.10;9.20;;;6.30;1.00;;;;;;5094457;28;20160;-68
2020/12/06 09:53:13;;;;;;;9.37;7.60;;;6.20;1.00;;;;;;5093125;28;20200;-67
2020/12/06 09:55:40;;;;;;;11.80;8.43;;;6.50;1.00;;;;;;5094302;28;20218;-67
2020/12/06 09:58:05;;;;;;;12.55;8.50;;;6.30;1.00;;;;;;5094583;28;20668;-67
2020/12/06 10:00:31;;;;;;;9.57;8.03;;;5.90;1.00;;;;;;5094393;28;20168;-67
2020/12/06 10:02:57;;;;;;;9.23;7.80;;;5.80;1.00;;;;;;5094313;28;20172;-67
2020/12/06 10:05:22;;;;;;;10.87;7.77;;;5.70;11.50;;;;;;5092913;28;20175;-68
2020/12/06 10:07:48;;;;;;;11.07;8.50;;;5.70;38.30;;;;;;5093937;28;20210;-67
2020/12/06 10:10:13;;;;;;;10.00;7.87;;;5.80;55.50;;;;;;5094692;28;20175;-67
2020/12/06 10:12:39;;;;;;;10.13;7.20;;;6.20;7.00;;;;;;5094264;28;20178;-67
2020/12/06 10:15:04;;;;;;;11.63;9.00;;;6.00;19.90;;;;;;5093998;28;20198;-67
2020/12/06 10:17:31;;;;;;;13.07;8.50;;;6.00;52.20;;;;;;5094125;28;20187;-67
2020/12/06 10:19:56;;;;;;;11.30;8.50;;;6.00;43.20;;;;;;5094202;28;20236;-67
2020/12/06 10:22:22;;;;;;;11.30;7.77;;;6.00;90.60;;;;;;5094313;28;20159;-67
2020/12/06 10:24:47;;;;;;;10.90;8.23;;;5.90;35.10;;;;;;5093934;28;20174;-67
2020/12/06 10:27:13;;;;;;;12.60;8.90;;;5.80;53.20;;;;;;5092979;28;20187;-68
2020/12/06 10:29:39;;;;;;;11.93;8.53;;;5.70;99.90;;;;;;5093862;28;20301;-68
2020/12/06 10:32:04;;;;;;;11.03;8.23;;;5.60;99.90;;;;;;5093715;28;20168;-67
2020/12/06 10:34:30;;;;;;;10.97;8.37;;;5.60;99.90;;;;;;5093681;28;20179;-67
2020/12/06 10:36:58;;;;;;;14.03;10.20;;;5.70;99.90;;;;;;5093932;28;20201;-67
2020/12/06 10:39:25;;;;;;;13.20;9.50;;;5.60;99.90;;;;;;5093894;28;20174;-67
2020/12/06 10:41:52;;;;;;;12.52;9.98;;;5.70;99.90;;;;;;5094049;28;20172;-67
2020/12/06 10:44:17;;;;;;;14.60;9.18;;;5.70;99.90;;;;;;5093530;28;20624;-67
2020/12/06 10:46:44;;;;;;;10.57;8.00;;;5.70;99.90;;;;;;5093762;28;20230;-67
2020/12/06 10:49:09;;;;;;;11.85;8.75;;;5.60;99.90;;;;;;5093470;28;20248;-67
2020/12/06 10:51:38;;;;;;;12.80;9.37;;;5.70;99.90;;;;;;5093990;28;20599;-67
2020/12/06 10:54:03;;;;;;;12.80;9.57;;;5.80;99.90;;;;;;5093589;28;20430;-70
2020/12/06 10:56:29;;;;;;;13.13;9.70;;;5.80;99.90;;;;;;5092662;28;20207;-70
2020/12/06 10:58:55;;;;;;;14.85;10.77;;;5.80;99.90;;;;;;5093592;28;20168;-69
2020/12/06 11:01:26;;;;;;;13.87;9.73;;;5.70;99.90;;;;;;5093192;28;20536;-70
2020/12/06 11:03:51;;;;;;;10.68;8.93;;;5.70;99.90;;;;;;5093525;28;20797;-67
2020/12/06 11:06:20;;;;;;;14.40;9.70;;;5.80;99.90;;;;;;5093323;28;20179;-68
2020/12/06 11:08:46;;;;;;;13.55;10.30;;;5.80;99.90;;;;;;5116388;22;20223;-69
2020/12/06 11:11:14;;;;;;;15.95;9.32;;;5.90;99.90;;;;;;5093596;28;20163;-70
2020/12/06 11:13:40;;;;;;;10.65;9.15;;;5.80;99.90;;;;;;5093181;28;20191;-69
2020/12/06 11:16:05;;;;;;;10.95;9.05;;;6.00;99.90;;;;;;5093252;28;20196;-68
2020/12/06 11:18:31;;;;;;;14.93;10.03;;;6.10;99.90;;;;;;5093160;28;20183;-69
2020/12/06 11:20:57;;;;;;;14.10;10.40;;;6.30;99.90;;;;;;5093289;28;20171;-68
2020/12/06 11:23:22;;;;;;;11.50;9.27;;;6.20;99.90;;;;;;5109351;28;20176;-69
2020/12/06 11:25:48;;;;;;;12.23;10.13;;;6.00;99.90;;;;;;5093271;28;20241;-69
2020/12/06 11:28:13;;;;;;;13.63;9.40;;;6.30;99.90;;;;;;5093374;28;20225;-69
2020/12/06 11:30:39;;;;;;;11.23;9.20;;;6.20;99.90;;;;;;5093151;28;20556;-69
2020/12/06 11:33:04;;;;;;;12.83;9.80;;;5.90;99.90;;;;;;5093143;28;20184;-69
2020/12/06 11:35:30;;;;;;;14.67;9.60;;;5.80;99.90;;;;;;5093158;28;20195;-68
2020/12/06 11:37:56;;;;;;;14.90;9.50;;;5.80;1.00;;;;;;5094093;28;20258;-69
2020/12/06 11:40:21;;;;;;;13.97;9.70;;;5.90;1.00;;;;;;5097329;28;20171;-70
2020/12/06 11:42:47;;;;;;;11.60;9.30;;;6.50;99.90;;;;;;5097241;28;20214;-69
2020/12/06 11:45:12;;;;;;;12.67;10.30;;;6.70;99.90;;;;;;5097851;28;20171;-71
2020/12/06 11:47:39;;;;;;;14.83;10.50;;;6.70;99.90;;;;;;5096954;28;20191;-71
2020/12/06 11:50:05;;;;;;;15.35;11.05;;;6.80;99.90;;;;;;5096945;28;20214;-71
2020/12/06 11:52:31;;;;;;;12.63;9.50;;;6.40;99.90;;;;;;5096833;28;20221;-71
2020/12/06 11:54:56;;;;;;;18.70;10.20;;;6.50;99.90;;;;;;5097111;28;20280;-70
2020/12/06 11:57:22;;;;;;;11.57;9.10;;;6.80;99.90;;;;;;5115287;28;20183;-71
2020/12/06 11:59:48;;;;;;;12.70;9.90;;;6.90;99.90;;;;;;5095909;28;20232;-70
2020/12/06 12:02:13;;;;;;;13.30;9.23;;;6.90;99.90;;;;;;5097212;28;20640;-71
2020/12/06 12:04:39;;;;;;;11.30;9.97;;;6.80;99.90;;;;;;5098544;28;20178;-71
2020/12/06 12:07:04;;;;;;;12.57;9.60;;;6.40;99.90;;;;;;5096452;28;20229;-71
2020/12/06 12:09:30;;;;;;;13.57;9.77;;;6.20;99.90;;;;;;5096612;28;20232;-69
2020/12/06 12:11:56;;;;;;;14.23;9.70;;;6.30;99.90;;;;;;5096522;28;20224;-69
2020/12/06 12:14:22;;;;;;;12.52;9.63;;;6.20;99.90;;;;;;5096563;28;20168;-71
2020/12/06 12:16:47;;;;;;;15.93;10.03;;;6.40;99.90;;;;;;5096486;28;20163;-71
2020/12/06 12:19:13;;;;;;;13.80;9.00;;;6.70;99.90;;;;;;5096413;28;20163;-70
2020/12/06 12:21:38;;;;;;;11.87;9.53;;;6.90;99.90;;;;;;5096506;28;20512;-71
2020/12/06 12:24:04;;;;;;;11.37;9.60;;;7.00;99.90;;;;;;5096262;28;20190;-71
2020/12/06 12:26:30;;;;;;;14.37;9.70;;;7.00;99.90;;;;;;5096236;28;20258;-71
2020/12/06 12:28:55;;;;;;;17.47;9.93;;;6.50;99.90;;;;;;5096350;28;20187;-71
2020/12/06 12:31:21;;;;;;;14.17;10.40;;;6.80;99.90;;;;;;5096288;28;20246;-70
2020/12/06 12:33:46;;;;;;;12.13;9.33;;;7.00;99.90;;;;;;5096031;28;20276;-70
2020/12/06 12:36:12;;;;;;;11.50;8.70;;;6.90;99.90;;;;;;5096018;28;20194;-71
2020/12/06 12:38:38;;;;;;;12.40;9.40;;;6.60;99.90;;;;;;5096087;28;20183;-70
2020/12/06 12:41:03;;;;;;;12.90;9.20;;;6.60;99.90;;;;;;5096119;28;20572;-70
2020/12/06 12:43:29;;;;;;;12.10;8.77;;;6.50;99.90;;;;;;5095941;28;20175;-69
2020/12/06 12:45:55;;;;;;;11.87;9.90;;;6.30;99.90;;;;;;5094456;28;20213;-70
2020/12/06 12:48:20;;;;;;;10.27;8.80;;;6.30;99.90;;;;;;5101757;28;20537;-71
2020/12/06 12:50:46;;;;;;;11.13;9.03;;;6.70;1.00;;;;;;5100642;28;20180;-71
2020/12/06 12:53:11;;;;;;;12.93;9.07;;;6.60;99.90;;;;;;5098398;28;20201;-71